Time;durP1;ratioP1;P1;durP2;ratioP2;P2;SDS_P1;SDS_P2;PMS_P1;PMS_P2;Temp;Humidity;BMP_temperature;BMP_pressure;BME280_temperature;BME280_humidity;BME280_pressure;Samples;Min_cycle;Max_cycle;Signal;HPM_P1;HPM_P2
2022/09/22 00:00:34;;;;;;;3.50;2.40;;;8.70;84.70;;;;;;5037739;28;20187;-87
2022/09/22 00:02:59;;;;;;;5.37;2.53;;;8.70;84.60;;;;;;5045153;28;20589;-87
2022/09/22 00:05:25;;;;;;;2.90;2.60;;;8.70;84.60;;;;;;5039596;28;20173;-87
2022/09/22 00:07:52;;;;;;;10.00;2.97;;;8.70;84.50;;;;;;5034707;28;20207;-87
2022/09/22 00:10:20;;;;;;;4.40;2.40;;;8.60;84.30;;;;;;5035073;28;20177;-88
2022/09/22 00:12:49;;;;;;;2.40;2.20;;;8.60;84.20;;;;;;5034998;28;20191;-87
2022/09/22 00:15:16;;;;;;;6.57;2.70;;;8.50;84.10;;;;;;5034854;28;20181;-87
2022/09/22 00:17:42;;;;;;;5.07;2.50;;;8.50;84.10;;;;;;5036015;28;20631;-87
2022/09/22 00:20:08;;;;;;;5.33;3.03;;;8.50;84.00;;;;;;5035329;28;20264;-87
2022/09/22 00:22:33;;;;;;;3.97;2.40;;;8.50;83.90;;;;;;5034794;28;20643;-87
2022/09/22 00:25:00;;;;;;;5.73;2.63;;;8.40;83.70;;;;;;5036326;28;20222;-87
2022/09/22 00:27:25;;;;;;;5.70;3.10;;;8.40;83.50;;;;;;5036070;28;20189;-87
2022/09/22 00:29:51;;;;;;;6.20;2.63;;;8.30;83.40;;;;;;5035530;28;20343;-87
2022/09/22 00:32:17;;;;;;;3.93;2.67;;;8.30;83.40;;;;;;5036229;28;20208;-87
2022/09/22 00:34:43;;;;;;;5.60;3.00;;;8.30;83.30;;;;;;5034873;28;20173;-87
2022/09/22 00:37:09;;;;;;;2.67;2.47;;;8.30;83.30;;;;;;5035785;28;20225;-87
2022/09/22 00:39:35;;;;;;;2.90;2.70;;;8.30;83.20;;;;;;5034635;28;20226;-87
2022/09/22 00:42:00;;;;;;;3.80;3.03;;;8.20;83.10;;;;;;5035912;28;20259;-87
2022/09/22 00:44:36;;;;;;;4.77;3.97;;;8.20;83.00;;;;;;5033857;28;20267;-87
2022/09/22 00:47:08;;;;;;;6.33;4.27;;;8.20;83.20;;;;;;5034212;28;20743;-86
2022/09/22 00:49:41;;;;;;;4.87;3.97;;;8.00;84.50;;;;;;5034180;28;20222;-88
2022/09/22 00:52:08;;;;;;;8.00;4.37;;;8.00;85.10;;;;;;5034018;28;20177;-87
2022/09/22 00:54:34;;;;;;;10.40;5.33;;;8.00;85.00;;;;;;5034560;28;20666;-87
2022/09/22 00:57:17;;;;;;;7.57;4.13;;;8.00;85.30;;;;;;5034367;28;20235;-87
2022/09/22 00:59:44;;;;;;;4.53;3.87;;;7.80;85.90;;;;;;5034308;28;20637;-87
2022/09/22 01:02:10;;;;;;;5.03;3.97;;;7.80;87.00;;;;;;5034390;28;20183;-87
2022/09/22 01:04:36;;;;;;;6.40;3.90;;;7.80;87.40;;;;;;5034362;28;20173;-87
2022/09/22 01:07:02;;;;;;;4.30;3.90;;;7.70;87.70;;;;;;5033889;28;20253;-87
2022/09/22 01:09:31;;;;;;;6.40;4.03;;;7.80;87.90;;;;;;5033843;28;20183;-87
2022/09/22 01:11:58;;;;;;;6.40;4.00;;;7.80;87.90;;;;;;5035373;28;20173;-87
2022/09/22 01:14:45;;;;;;;5.10;4.17;;;7.70;88.10;;;;;;5034137;28;20176;-87
2022/09/22 01:17:28;;;;;;;5.87;3.90;;;7.80;88.30;;;;;;5035740;28;20192;-87
2022/09/22 01:20:10;;;;;;;5.03;4.10;;;7.80;88.30;;;;;;5035139;28;20168;-87
2022/09/22 01:22:54;;;;;;;4.47;3.53;;;7.80;88.00;;;;;;5033628;28;20223;-87
2022/09/22 01:25:51;;;;;;;7.23;3.13;;;7.80;87.80;;;;;;5035286;28;20388;-87
2022/09/22 01:28:22;;;;;;;7.23;3.63;;;7.80;87.50;;;;;;5034678;28;20149;-87
2022/09/22 01:31:00;;;;;;;3.53;3.23;;;7.80;87.20;;;;;;5033366;28;20173;-87
2022/09/22 01:33:39;;;;;;;4.70;3.40;;;7.80;87.00;;;;;;5033708;28;20177;-87
2022/09/22 01:36:10;;;;;;;5.13;3.00;;;7.80;86.70;;;;;;5033646;28;20183;-87
2022/09/22 01:38:45;;;;;;;8.23;3.50;;;7.70;86.50;;;;;;5034390;28;20570;-87
2022/09/22 01:41:35;;;;;;;5.07;3.80;;;7.70;86.40;;;;;;5034286;28;20188;-87
2022/09/22 01:44:06;;;;;;;4.33;3.10;;;7.70;86.30;;;;;;5032965;28;20557;-87
2022/09/22 01:46:37;;;;;;;3.60;3.17;;;7.70;86.20;;;;;;5034369;28;20706;-87
2022/09/22 01:49:07;;;;;;;7.90;3.30;;;7.70;86.10;;;;;;5033555;28;20189;-87
2022/09/22 01:51:44;;;;;;;4.07;3.17;;;7.60;85.90;;;;;;5033082;28;20169;-87
2022/09/22 01:54:17;;;;;;;3.60;2.97;;;7.60;85.80;;;;;;5033134;28;20251;-87
2022/09/22 01:56:50;;;;;;;14.53;3.30;;;7.60;85.70;;;;;;5032355;28;20672;-87
2022/09/22 01:59:19;;;;;;;3.87;3.43;;;7.50;85.60;;;;;;5033156;28;20229;-87
2022/09/22 02:01:56;;;;;;;4.77;3.53;;;7.50;85.50;;;;;;5032855;28;20172;-87
2022/09/22 02:04:31;;;;;;;5.23;3.23;;;7.50;85.30;;;;;;5032897;28;20164;-87
2022/09/22 02:07:01;;;;;;;6.43;3.13;;;7.50;85.20;;;;;;5033444;28;20728;-87
2022/09/22 02:09:29;;;;;;;3.80;3.50;;;7.40;85.10;;;;;;5033412;28;20207;-87
2022/09/22 02:11:57;;;;;;;5.77;3.53;;;7.40;85.00;;;;;;5034822;28;20251;-87
2022/09/22 02:14:23;;;;;;;4.63;3.40;;;7.40;85.00;;;;;;5033325;28;20618;-87
2022/09/22 02:16:50;;;;;;;3.80;3.40;;;7.40;84.90;;;;;;5032976;28;20737;-87
2022/09/22 02:19:29;;;;;;;3.50;3.20;;;7.40;84.80;;;;;;5032850;28;20582;-87
2022/09/22 02:21:55;;;;;;;5.03;2.97;;;7.30;84.70;;;;;;5034551;28;20157;-87
2022/09/22 02:24:37;;;;;;;3.30;3.00;;;7.30;84.60;;;;;;5033089;28;20177;-91
2022/09/22 02:27:24;;;;;;;3.20;2.87;;;7.30;84.50;;;;;;5033127;28;20193;-87
2022/09/22 02:29:56;;;;;;;4.70;3.00;;;7.30;84.40;;;;;;5032372;28;20192;-87
2022/09/22 02:32:23;;;;;;;5.93;2.60;;;7.20;84.30;;;;;;5033995;28;20698;-87
2022/09/22 02:34:48;;;;;;;5.83;2.70;;;7.20;84.30;;;;;;5032579;28;20181;-87
2022/09/22 02:37:14;;;;;;;4.57;3.10;;;7.20;84.20;;;;;;5032539;28;20202;-87
2022/09/22 02:40:09;;;;;;;4.60;2.87;;;7.20;84.00;;;;;;5032406;28;20182;-87
2022/09/22 02:42:46;;;;;;;5.90;2.70;;;7.10;83.90;;;;;;5033815;28;20200;-87
2022/09/22 02:45:20;;;;;;;3.10;2.60;;;7.00;84.00;;;;;;5032350;28;20177;-87
2022/09/22 02:47:49;;;;;;;5.97;3.23;;;7.00;84.10;;;;;;5032259;28;20295;-87
2022/09/22 02:50:17;;;;;;;4.80;2.77;;;7.00;84.00;;;;;;5033694;28;20299;-87
2022/09/22 02:52:42;;;;;;;3.90;2.93;;;7.00;83.90;;;;;;5033345;28;20231;-87
2022/09/22 02:55:09;;;;;;;3.33;3.03;;;7.00;83.90;;;;;;5032091;28;20619;-87
2022/09/22 02:57:35;;;;;;;4.07;3.07;;;7.00;83.80;;;;;;5033170;28;20317;-87
2022/09/22 03:00:03;;;;;;;4.57;3.20;;;6.90;83.90;;;;;;5031996;28;20204;-87
2022/09/22 03:02:28;;;;;;;5.97;3.43;;;6.90;84.00;;;;;;5032300;28;20618;-87
2022/09/22 03:04:54;;;;;;;4.03;3.30;;;6.90;84.20;;;;;;5033175;28;20200;-87
2022/09/22 03:07:20;;;;;;;3.00;2.50;;;6.80;84.30;;;;;;5034254;28;20230;-87
2022/09/22 03:09:45;;;;;;;5.73;3.80;;;6.80;84.30;;;;;;5037108;28;20173;-87
2022/09/22 03:12:10;;;;;;;3.73;3.20;;;6.80;84.20;;;;;;5035923;28;20270;-87
2022/09/22 03:14:36;;;;;;;4.07;3.40;;;6.80;84.20;;;;;;5036634;28;20177;-87
2022/09/22 03:17:01;;;;;;;5.07;3.50;;;6.80;84.20;;;;;;5037132;28;20199;-87
2022/09/22 03:19:27;;;;;;;4.77;3.67;;;6.80;84.50;;;;;;5035987;28;20204;-87
2022/09/22 03:21:52;;;;;;;5.93;3.50;;;6.80;84.60;;;;;;5035858;28;20177;-87
2022/09/22 03:24:18;;;;;;;3.50;3.03;;;6.70;84.80;;;;;;5035547;28;20643;-87
2022/09/22 03:26:44;;;;;;;9.93;3.37;;;6.70;84.80;;;;;;5035482;28;20243;-87
2022/09/22 03:29:09;;;;;;;8.00;3.17;;;6.70;84.80;;;;;;5035322;28;20219;-87
2022/09/22 03:31:35;;;;;;;3.27;2.90;;;6.70;84.80;;;;;;5035635;28;20663;-87
2022/09/22 03:34:00;;;;;;;3.27;2.90;;;6.70;84.70;;;;;;5035654;28;20180;-87
2022/09/22 03:36:26;;;;;;;3.63;2.83;;;6.70;84.80;;;;;;5035835;28;20688;-88
2022/09/22 03:38:51;;;;;;;4.83;2.80;;;6.70;84.80;;;;;;5036610;28;20203;-87
2022/09/22 03:41:18;;;;;;;2.50;2.30;;;6.70;84.90;;;;;;5035331;28;20176;-86
2022/09/22 03:43:43;;;;;;;2.77;2.57;;;6.70;84.90;;;;;;5036403;28;20292;-87
2022/09/22 03:46:09;;;;;;;3.73;2.87;;;6.70;84.80;;;;;;5035044;28;20216;-87
2022/09/22 03:48:34;;;;;;;4.93;3.57;;;6.70;84.70;;;;;;5036477;28;20196;-87
2022/09/22 03:51:00;;;;;;;37.40;5.47;;;6.70;84.70;;;;;;5035800;28;20180;-87
2022/09/22 03:53:26;;;;;;;20.33;4.90;;;6.70;84.80;;;;;;5035134;28;20272;-87
2022/09/22 03:55:51;;;;;;;12.07;4.40;;;6.80;85.00;;;;;;5035334;28;20185;-87
2022/09/22 03:58:20;;;;;;;21.07;4.47;;;6.80;85.30;;;;;;5036355;28;20193;-86
2022/09/22 04:00:48;;;;;;;14.10;4.97;;;6.70;85.60;;;;;;5035902;28;20173;-87
2022/09/22 04:03:14;;;;;;;14.23;5.50;;;6.80;86.00;;;;;;5034694;28;20177;-87
2022/09/22 04:05:39;;;;;;;16.43;5.60;;;6.70;86.20;;;;;;5035895;28;20188;-86
2022/09/22 04:08:05;;;;;;;33.53;5.87;;;6.60;86.50;;;;;;5034713;28;20208;-87
2022/09/22 04:10:32;;;;;;;19.47;4.57;;;6.50;86.90;;;;;;5035932;28;20181;-87
2022/09/22 04:12:57;;;;;;;6.20;5.37;;;6.50;87.10;;;;;;5034601;28;20327;-87
2022/09/22 04:15:23;;;;;;;15.93;4.50;;;6.40;87.20;;;;;;5034286;28;20263;-87
2022/09/22 04:17:49;;;;;;;18.10;4.43;;;6.40;87.30;;;;;;5033325;28;20201;-86
2022/09/22 04:20:15;;;;;;;18.00;4.83;;;6.40;87.60;;;;;;5034313;28;20165;-87
2022/09/22 04:22:41;;;;;;;5.63;4.67;;;6.30;87.80;;;;;;5034581;28;20188;-86
2022/09/22 04:25:07;;;;;;;5.33;4.80;;;6.30;88.00;;;;;;5034322;28;20173;-87
2022/09/22 04:27:32;;;;;;;5.20;4.67;;;6.40;88.00;;;;;;5035416;28;20196;-86
2022/09/22 04:29:59;;;;;;;5.53;4.60;;;6.40;88.00;;;;;;5034182;28;20188;-86
2022/09/22 04:32:25;;;;;;;4.47;4.07;;;6.40;88.00;;;;;;5035371;28;20191;-86
2022/09/22 04:34:50;;;;;;;3.87;3.47;;;6.40;88.00;;;;;;5034164;28;20646;-86
2022/09/22 04:37:16;;;;;;;6.47;3.70;;;6.40;87.90;;;;;;5034076;28;20185;-87
2022/09/22 04:39:41;;;;;;;5.90;3.93;;;6.40;87.90;;;;;;5034444;28;20247;-87
2022/09/22 04:42:10;;;;;;;6.90;3.80;;;6.30;87.90;;;;;;5035435;28;20219;-87
2022/09/22 04:44:35;;;;;;;8.07;5.23;;;6.30;87.80;;;;;;5035455;28;20230;-86
2022/09/22 04:47:02;;;;;;;12.97;6.00;;;6.30;87.70;;;;;;5035020;28;20188;-86
2022/09/22 04:49:27;;;;;;;7.00;4.60;;;6.30;87.70;;;;;;5035082;28;20180;-86
2022/09/22 04:51:53;;;;;;;7.43;6.13;;;6.30;87.80;;;;;;5035014;28;20173;-87
2022/09/22 04:54:18;;;;;;;19.93;6.77;;;6.20;87.70;;;;;;5034003;28;20646;-87
2022/09/22 04:56:44;;;;;;;7.63;5.83;;;6.20;87.70;;;;;;5033831;28;20572;-87
2022/09/22 04:59:10;;;;;;;7.43;6.10;;;6.20;87.80;;;;;;5033747;28;20200;-87
2022/09/22 05:01:36;;;;;;;6.60;5.90;;;6.20;87.80;;;;;;5033767;28;20172;-87
2022/09/22 05:04:01;;;;;;;7.43;6.17;;;6.20;87.80;;;;;;5033762;28;20230;-86
2022/09/22 05:06:27;;;;;;;5.43;4.90;;;6.20;87.80;;;;;;5034627;28;20224;-86
2022/09/22 05:08:52;;;;;;;9.30;4.97;;;6.20;87.70;;;;;;5033518;28;20211;-87
2022/09/22 05:11:20;;;;;;;5.93;5.30;;;6.10;87.60;;;;;;5034572;28;20184;-87
2022/09/22 05:13:46;;;;;;;5.90;4.73;;;6.10;87.60;;;;;;5034753;28;20176;-87
2022/09/22 05:16:11;;;;;;;4.83;4.43;;;6.10;87.60;;;;;;5033283;28;20208;-87
2022/09/22 05:18:38;;;;;;;8.63;5.23;;;6.10;87.50;;;;;;5033285;28;20674;-87
2022/09/22 05:21:04;;;;;;;13.70;6.33;;;6.10;87.50;;;;;;5034701;28;20310;-86
2022/09/22 05:23:30;;;;;;;30.23;8.20;;;6.10;87.40;;;;;;5034327;28;20218;-86
2022/09/22 05:25:56;;;;;;;30.40;7.33;;;6.10;87.40;;;;;;5033012;28;20169;-86
2022/09/22 05:28:21;;;;;;;7.93;6.87;;;6.00;87.50;;;;;;5032860;28;20192;-86
2022/09/22 05:30:49;;;;;;;8.30;7.50;;;6.00;87.70;;;;;;5032989;28;20173;-86
2022/09/22 05:33:15;;;;;;;8.23;6.20;;;6.00;87.80;;;;;;5033082;28;20177;-87
2022/09/22 05:35:41;;;;;;;7.47;5.70;;;6.10;87.80;;;;;;5033411;28;20181;-87
2022/09/22 05:38:06;;;;;;;7.03;5.37;;;6.10;87.70;;;;;;5034177;28;20209;-87
2022/09/22 05:40:32;;;;;;;8.93;5.10;;;6.10;87.60;;;;;;5034165;28;20651;-87
2022/09/22 05:42:57;;;;;;;26.87;5.33;;;6.20;87.60;;;;;;5034249;28;20647;-86
2022/09/22 05:45:23;;;;;;;28.00;5.63;;;6.20;87.70;;;;;;5032773;28;20215;-87
2022/09/22 05:47:49;;;;;;;14.53;5.27;;;6.20;87.90;;;;;;5033869;28;20201;-87
2022/09/22 05:50:16;;;;;;;9.93;5.80;;;6.20;88.00;;;;;;5032876;28;20267;-87
2022/09/22 05:52:42;;;;;;;23.97;5.47;;;6.30;88.00;;;;;;5032821;28;20777;-87
2022/09/22 05:55:08;;;;;;;17.90;5.47;;;6.30;88.20;;;;;;5032864;28;20267;-87
2022/09/22 05:57:34;;;;;;;14.83;5.60;;;6.20;88.20;;;;;;5033614;28;20197;-86
2022/09/22 06:00:00;;;;;;;6.23;4.73;;;6.10;88.40;;;;;;5032450;28;20331;-86
2022/09/22 06:02:25;;;;;;;13.27;5.40;;;6.10;88.60;;;;;;5032412;28;20184;-87
2022/09/22 06:04:51;;;;;;;12.53;5.47;;;6.20;88.80;;;;;;5033744;28;20248;-92
2022/09/22 06:07:21;;;;;;;20.87;6.73;;;6.20;88.90;;;;;;5034149;28;20224;-88
2022/09/22 06:09:47;;;;;;;9.23;5.70;;;6.20;89.00;;;;;;5032629;28;20682;-89
2022/09/22 06:12:13;;;;;;;5.80;5.23;;;6.10;89.20;;;;;;5032980;28;20196;-89
2022/09/22 06:14:39;;;;;;;7.00;5.20;;;6.10;89.40;;;;;;5032979;28;20594;-88
2022/09/22 06:17:06;;;;;;;7.87;6.87;;;6.20;89.70;;;;;;5032730;28;20200;-88
2022/09/22 06:19:32;;;;;;;7.33;6.20;;;6.30;89.80;;;;;;5032712;28;20228;-89
2022/09/22 06:21:57;;;;;;;15.23;5.97;;;6.30;89.80;;;;;;5032630;28;20538;-89
2022/09/22 06:24:23;;;;;;;21.80;7.07;;;6.30;90.00;;;;;;5032644;28;20180;-89
2022/09/22 06:26:49;;;;;;;12.70;7.20;;;6.40;90.10;;;;;;5032529;28;20736;-89
2022/09/22 06:29:15;;;;;;;17.93;7.10;;;6.40;90.30;;;;;;5032388;28;20196;-89
2022/09/22 06:31:40;;;;;;;15.83;7.30;;;6.50;90.50;;;;;;5033816;28;20250;-88
2022/09/22 06:34:07;;;;;;;20.37;8.53;;;6.50;90.60;;;;;;5033914;28;20172;-88
2022/09/22 06:36:32;;;;;;;12.07;8.60;;;6.60;90.90;;;;;;5033735;28;20197;-88
2022/09/22 06:38:59;;;;;;;9.40;7.97;;;6.70;91.10;;;;;;5032516;28;20686;-88
2022/09/22 06:41:26;;;;;;;11.67;8.67;;;6.80;91.20;;;;;;5032433;28;20183;-88
2022/09/22 06:43:54;;;;;;;9.50;8.57;;;6.80;91.30;;;;;;5032606;28;20165;-88
2022/09/22 06:46:32;;;;;;;10.07;8.70;;;7.00;91.60;;;;;;5034078;28;20217;-88
2022/09/22 06:48:58;;;;;;;10.50;8.87;;;7.10;91.70;;;;;;5032579;28;20200;-88
2022/09/22 06:51:29;;;;;;;10.07;9.03;;;7.20;91.80;;;;;;5033579;28;20177;-88
2022/09/22 06:53:55;;;;;;;10.20;9.03;;;7.30;91.90;;;;;;5033646;28;20168;-88
2022/09/22 06:56:25;;;;;;;18.00;9.37;;;7.30;91.90;;;;;;5032867;28;20211;-89
2022/09/22 06:58:51;;;;;;;9.03;7.70;;;7.40;92.00;;;;;;5031898;28;20200;-88
2022/09/22 07:01:18;;;;;;;11.97;7.57;;;7.40;92.00;;;;;;5032226;28;20169;-88
2022/09/22 07:03:45;;;;;;;13.90;9.53;;;7.50;92.00;;;;;;5031958;28;20177;-89
2022/09/22 07:06:16;;;;;;;15.57;11.83;;;7.50;92.00;;;;;;5033369;28;20184;-89
2022/09/22 07:08:42;;;;;;;19.87;13.83;;;7.60;92.10;;;;;;5032225;28;20256;-88
2022/09/22 07:11:10;;;;;;;20.57;16.93;;;7.70;92.20;;;;;;5031963;28;20197;-88
2022/09/22 07:13:38;;;;;;;20.53;18.27;;;7.90;92.50;;;;;;5033171;28;20173;-87
2022/09/22 07:16:06;;;;;;;22.90;20.30;;;8.10;92.50;;;;;;5031809;28;20181;-88
2022/09/22 07:18:32;;;;;;;26.07;21.27;;;8.30;92.70;;;;;;5031892;28;20709;-89
2022/09/22 07:21:15;;;;;;;31.60;24.57;;;8.50;92.80;;;;;;5033395;28;20177;-86
2022/09/22 07:23:42;;;;;;;29.07;22.67;;;8.60;92.90;;;;;;5031827;28;20177;-88
2022/09/22 07:26:11;;;;;;;29.67;23.13;;;8.60;92.80;;;;;;5033121;28;20188;-87
2022/09/22 07:28:38;;;;;;;32.17;22.47;;;8.70;92.90;;;;;;5031823;28;20192;-88
2022/09/22 07:31:06;;;;;;;31.60;23.37;;;8.70;92.90;;;;;;5033301;28;20538;-87
2022/09/22 07:33:32;;;;;;;26.97;22.60;;;9.00;93.10;;;;;;5032864;28;20260;-87
2022/09/22 07:36:11;;;;;;;30.77;22.67;;;9.30;93.20;;;;;;5032027;28;20181;-87
2022/09/22 07:38:38;;;;;;;24.70;21.97;;;9.40;93.00;;;;;;5032362;28;20189;-87
2022/09/22 07:41:08;;;;;;;25.43;19.97;;;9.50;93.00;;;;;;5033982;28;20173;-86
2022/09/22 07:43:34;;;;;;;24.67;19.97;;;9.60;92.80;;;;;;5033653;28;20172;-87
2022/09/22 07:46:00;;;;;;;25.10;20.57;;;9.70;92.60;;;;;;5032773;28;20235;-87
2022/09/22 07:48:41;;;;;;;29.70;19.63;;;9.80;92.60;;;;;;5033769;28;20177;-86
2022/09/22 07:51:19;;;;;;;27.07;19.00;;;9.90;92.60;;;;;;5035186;28;20497;-88
2022/09/22 07:53:51;;;;;;;27.93;19.93;;;10.00;92.30;;;;;;5035162;28;20527;-87
2022/09/22 07:56:20;;;;;;;22.93;18.20;;;10.10;92.40;;;;;;5038955;28;20211;-87
2022/09/22 07:58:52;;;;;;;23.60;19.00;;;10.30;92.40;;;;;;5037375;28;20232;-88
2022/09/22 08:01:20;;;;;;;19.23;14.53;;;10.30;92.30;;;;;;5035138;28;20180;-89
2022/09/22 08:03:46;;;;;;;17.97;13.83;;;10.30;91.70;;;;;;5036330;28;20658;-88
2022/09/22 08:06:13;;;;;;;18.87;13.83;;;10.40;91.50;;;;;;5036647;28;20188;-88
2022/09/22 08:08:52;;;;;;;17.27;13.40;;;10.50;91.40;;;;;;5038283;28;20654;-91
2022/09/22 08:11:19;;;;;;;18.50;12.57;;;10.50;91.20;;;;;;5034971;28;20225;-91
2022/09/22 08:16:26;;;;;;;16.53;12.40;;;10.80;91.20;;;;;;5150384;22;20248;-91
2022/09/22 08:18:54;;;;;;;18.43;10.73;;;10.90;91.20;;;;;;5021720;28;20200;-92
2022/09/22 08:21:21;;;;;;;12.67;9.83;;;11.10;91.00;;;;;;5017949;28;20176;-91
2022/09/22 08:23:51;;;;;;;12.03;10.20;;;11.20;90.70;;;;;;5016750;28;20264;-91
2022/09/22 08:26:18;;;;;;;12.57;10.20;;;11.30;90.20;;;;;;5016938;28;20691;-91
2022/09/22 08:28:44;;;;;;;12.93;9.80;;;11.70;90.00;;;;;;5018942;28;20177;-91
2022/09/22 08:31:12;;;;;;;14.53;9.17;;;11.80;89.60;;;;;;5021572;28;20205;-93
2022/09/22 08:33:39;;;;;;;14.70;9.10;;;11.90;88.90;;;;;;5034682;28;20170;-93
2022/09/22 08:36:06;;;;;;;12.93;9.43;;;12.00;88.20;;;;;;5031771;28;20647;-93
2022/09/22 08:38:34;;;;;;;16.57;9.90;;;12.10;87.90;;;;;;5029218;28;20613;-92
2022/09/22 08:41:11;;;;;;;17.90;8.23;;;12.30;88.20;;;;;;5025875;28;20173;-93
2022/09/22 08:43:50;;;;;;;15.17;6.27;;;12.30;88.10;;;;;;5033803;28;20197;-93
2022/09/22 08:46:15;;;;;;;12.83;7.50;;;12.40;87.60;;;;;;5027964;28;20201;-93
2022/09/22 08:59:10;;;;;;;12.53;5.27;;;13.30;83.30;;;;;;5038954;28;20217;-92
2022/09/22 09:02:19;;;;;;;10.03;3.43;;;13.50;80.90;;;;;;5042782;28;20642;-92
2022/09/22 09:04:58;;;;;;;14.90;4.13;;;13.60;78.10;;;;;;5045541;28;20221;-92
2022/09/22 09:07:59;;;;;;;11.33;3.10;;;13.80;77.40;;;;;;5042216;28;20287;-92
2022/09/22 09:10:54;;;;;;;6.07;2.90;;;13.90;75.80;;;;;;5051603;28;20236;-92
2022/09/22 09:13:27;;;;;;;12.87;2.93;;;14.30;75.40;;;;;;5048672;28;20172;-92
2022/09/22 09:15:59;;;;;;;6.90;2.63;;;14.30;73.00;;;;;;5047148;28;20165;-92
2022/09/22 09:18:34;;;;;;;3.03;1.87;;;14.50;72.10;;;;;;5048932;28;20221;-92
2022/09/22 09:21:03;;;;;;;7.83;2.17;;;14.50;71.50;;;;;;5048807;28;20187;-92
2022/09/22 09:23:46;;;;;;;10.73;2.40;;;14.60;71.10;;;;;;5047962;28;20172;-92
2022/09/22 09:26:14;;;;;;;6.67;2.33;;;14.70;69.50;;;;;;5048766;28;20223;-92
2022/09/22 09:28:46;;;;;;;7.27;1.93;;;14.80;69.00;;;;;;5046775;28;20204;-91
2022/09/22 09:31:32;;;;;;;7.67;2.50;;;14.80;68.60;;;;;;5050335;28;20184;-92
2022/09/22 09:34:04;;;;;;;4.53;1.70;;;15.00;68.30;;;;;;5051436;28;20172;-92
2022/09/22 09:36:36;;;;;;;7.77;2.77;;;15.00;66.40;;;;;;5047779;28;20203;-91
2022/09/22 09:39:14;;;;;;;15.43;3.20;;;15.10;68.40;;;;;;5043923;28;20227;-91
2022/09/22 09:41:42;;;;;;;8.50;2.50;;;15.20;68.10;;;;;;5040717;28;20183;-92
2022/09/22 09:44:19;;;;;;;13.97;2.10;;;15.30;67.60;;;;;;5041487;28;20180;-92
2022/09/22 09:47:02;;;;;;;7.63;2.23;;;15.50;66.00;;;;;;5043857;28;20188;-93
2022/09/22 09:49:28;;;;;;;6.10;2.03;;;15.60;64.70;;;;;;5039262;28;20172;-92
2022/09/22 09:51:58;;;;;;;4.25;1.35;;;15.70;66.30;;;;;;5041085;28;20227;-92
2022/09/22 09:54:24;;;;;;;6.80;2.20;;;15.80;63.80;;;;;;5041099;28;20181;-92
2022/09/22 09:57:11;;;;;;;7.03;1.55;;;15.80;62.40;;;;;;5042159;28;20764;-92
2022/09/22 10:02:35;;;;;;;6.32;2.50;;;15.90;62.80;;;;;;5042042;28;20630;-92
2022/09/22 10:05:04;;;;;;;4.13;1.30;;;15.90;63.50;;;;;;5042212;28;20267;-93
2022/09/22 10:07:43;;;;;;;4.28;2.10;;;16.00;62.60;;;;;;5043363;28;20200;-91
2022/09/22 10:10:33;;;;;;;8.82;2.25;;;16.00;61.40;;;;;;5040728;28;20593;-93
2022/09/22 10:13:04;;;;;;;9.25;2.22;;;16.10;62.90;;;;;;5047773;28;20177;-93
2022/09/22 10:15:39;;;;;;;7.30;1.88;;;16.30;64.90;;;;;;5035154;28;20184;-90
2022/09/22 10:18:23;;;;;;;7.85;1.77;;;16.50;63.50;;;;;;5035855;28;20230;-93
2022/09/22 10:21:03;;;;;;;8.40;1.80;;;16.60;62.70;;;;;;5039998;28;20175;-91
2022/09/22 10:23:33;;;;;;;5.90;2.40;;;16.70;60.90;;;;;;5033910;28;20169;-89
2022/09/22 10:26:18;;;;;;;10.27;2.10;;;17.00;62.80;;;;;;5032527;28;20553;-89
2022/09/22 10:28:49;;;;;;;4.35;1.83;;;17.20;60.80;;;;;;5032546;28;20176;-89
2022/09/22 10:31:25;;;;;;;8.00;1.77;;;17.20;60.60;;;;;;5033547;28;20240;-91
2022/09/22 10:34:00;;;;;;;4.80;1.63;;;17.40;60.40;;;;;;5033396;28;20157;-90
2022/09/22 10:36:27;;;;;;;11.63;1.90;;;17.50;60.70;;;;;;5035302;28;20287;-89
2022/09/22 10:38:54;;;;;;;7.68;1.88;;;17.30;61.20;;;;;;5032121;28;20203;-91
2022/09/22 10:41:25;;;;;;;4.53;1.75;;;17.30;61.30;;;;;;5032486;28;20337;-92
2022/09/22 10:44:06;;;;;;;7.18;1.70;;;17.40;60.10;;;;;;5033718;28;20153;-90
2022/09/22 10:47:05;;;;;;;6.95;1.95;;;17.40;60.60;;;;;;5032471;28;20224;-90
2022/09/22 10:49:31;;;;;;;6.22;2.35;;;17.70;58.80;;;;;;5033024;28;20665;-90
2022/09/22 10:52:02;;;;;;;5.22;1.90;;;17.30;57.30;;;;;;5032429;28;20189;-90
2022/09/22 10:54:56;;;;;;;4.82;1.45;;;17.70;59.10;;;;;;5032161;28;20176;-90
2022/09/22 10:57:48;;;;;;;4.53;1.77;;;17.30;57.60;;;;;;5031901;28;20215;-90
2022/09/22 11:00:23;;;;;;;10.20;2.75;;;17.60;58.10;;;;;;5033893;28;20630;-90
2022/09/22 11:03:10;;;;;;;5.55;1.75;;;17.80;57.00;;;;;;5033704;28;20616;-89
2022/09/22 11:12:16;;;;;;;5.00;1.50;;;18.30;56.80;;;;;;5034200;28;20169;-89
2022/09/22 11:14:52;;;;;;;5.25;1.35;;;18.30;56.70;;;;;;5032364;28;20222;-90
2022/09/22 11:17:44;;;;;;;8.95;2.20;;;18.30;55.70;;;;;;5032856;28;20659;-90
2022/09/22 11:20:15;;;;;;;4.63;1.33;;;17.90;57.60;;;;;;5032885;28;20189;-88
2022/09/22 11:23:22;;;;;;;8.88;1.38;;;17.90;56.40;;;;;;5032901;28;20207;-90
2022/09/22 11:26:06;;;;;;;5.60;1.65;;;17.80;54.90;;;;;;4989414;28;20184;-89
2022/09/22 11:28:59;;;;;;;5.07;1.40;;;17.90;55.00;;;;;;5036289;28;20642;-89
2022/09/22 11:31:45;;;;;;;7.35;1.27;;;18.40;56.00;;;;;;5036768;28;20696;-88
2022/09/22 11:34:43;;;;;;;5.10;1.27;;;18.00;55.70;;;;;;5036211;28;20631;-89
2022/09/22 11:37:36;;;;;;;5.32;1.60;;;18.20;56.90;;;;;;5025633;28;20204;-89
2022/09/22 11:40:21;;;;;;;6.63;1.70;;;18.70;53.60;;;;;;5035802;28;20185;-89
2022/09/22 11:43:38;;;;;;;4.55;1.40;;;18.40;54.70;;;;;;5036352;28;20230;-89
2022/09/22 11:46:21;;;;;;;4.22;1.23;;;18.00;52.30;;;;;;4992331;28;20235;-89
2022/09/22 11:49:09;;;;;;;6.35;1.23;;;17.90;54.40;;;;;;5036070;28;20571;-90
2022/09/22 11:51:41;;;;;;;5.15;1.30;;;18.00;53.90;;;;;;5035937;28;20226;-89
2022/09/22 11:54:06;;;;;;;3.80;1.48;;;18.00;53.60;;;;;;5036138;28;20169;-89
2022/09/22 11:56:39;;;;;;;4.10;1.17;;;18.40;54.10;;;;;;5036235;28;20219;-89
2022/09/22 11:59:13;;;;;;;7.63;1.67;;;18.90;53.30;;;;;;5035824;28;20276;-90
2022/09/22 12:01:40;;;;;;;4.15;1.50;;;18.60;54.00;;;;;;5035505;28;20165;-90
2022/09/22 12:04:26;;;;;;;6.72;1.75;;;18.90;53.20;;;;;;5036933;28;20169;-90
2022/09/22 12:06:55;;;;;;;5.53;1.48;;;18.70;51.90;;;;;;5035550;28;20235;-89
2022/09/22 12:09:26;;;;;;;8.13;1.55;;;18.30;52.90;;;;;;5036440;28;20238;-89
2022/09/22 12:11:54;;;;;;;2.78;1.10;;;18.60;54.10;;;;;;5036169;28;20590;-88
2022/09/22 12:14:20;;;;;;;3.05;1.02;;;18.80;52.70;;;;;;5039560;28;20206;-89
2022/09/22 12:17:08;;;;;;;9.63;1.60;;;19.20;52.10;;;;;;5035573;28;20196;-90
2022/09/22 12:19:49;;;;;;;6.82;1.33;;;19.20;52.60;;;;;;5034998;28;20200;-89
2022/09/22 12:22:20;;;;;;;4.32;1.48;;;19.60;52.50;;;;;;5034756;28;20694;-89
2022/09/22 12:24:46;;;;;;;4.47;1.67;;;19.20;50.40;;;;;;5035231;28;20203;-90
2022/09/22 12:27:24;;;;;;;4.15;1.40;;;19.40;50.60;;;;;;5034836;28;20188;-89
2022/09/22 12:29:59;;;;;;;5.95;1.35;;;19.10;50.60;;;;;;5035009;28;20178;-89
2022/09/22 12:32:35;;;;;;;4.35;1.70;;;19.00;49.90;;;;;;5034798;28;20255;-88
2022/09/22 12:35:02;;;;;;;5.72;1.63;;;18.60;50.60;;;;;;5034829;28;20169;-89
2022/09/22 12:37:33;;;;;;;4.72;1.20;;;18.20;52.20;;;;;;5034668;28;20261;-89
2022/09/22 12:40:26;;;;;;;4.88;1.17;;;18.40;50.50;;;;;;5033733;28;20200;-89
2022/09/22 12:42:52;;;;;;;4.07;1.30;;;18.60;49.50;;;;;;5033937;28;20181;-89
2022/09/22 12:45:39;;;;;;;5.07;1.45;;;19.10;51.40;;;;;;5036979;28;20586;-90
2022/09/22 12:48:15;;;;;;;4.55;1.20;;;19.20;49.90;;;;;;5036025;28;20199;-89
2022/09/22 12:50:42;;;;;;;5.15;1.48;;;19.00;50.20;;;;;;5036125;28;20160;-89
2022/09/22 12:53:20;;;;;;;5.28;1.60;;;19.00;48.70;;;;;;5034676;28;20172;-89
2022/09/22 12:55:47;;;;;;;7.07;1.63;;;18.50;51.50;;;;;;5035104;28;20644;-90
2022/09/22 12:58:24;;;;;;;6.32;1.25;;;19.00;51.80;;;;;;5034411;28;20216;-89
2022/09/22 13:00:55;;;;;;;4.28;1.73;;;19.00;50.10;;;;;;5034791;28;20199;-89
2022/09/22 13:03:24;;;;;;;4.70;1.17;;;18.80;50.30;;;;;;5034719;28;20180;-90
2022/09/22 13:05:52;;;;;;;5.35;1.98;;;18.40;50.70;;;;;;5035727;28;20191;-90
2022/09/22 13:08:24;;;;;;;6.65;1.23;;;18.00;51.70;;;;;;5034441;28;20200;-89
2022/09/22 13:10:54;;;;;;;3.35;1.08;;;17.70;52.40;;;;;;5034184;28;20176;-89
2022/09/22 13:13:32;;;;;;;6.57;1.58;;;18.20;52.50;;;;;;5035074;28;20303;-89
2022/09/22 13:16:00;;;;;;;6.80;1.52;;;18.70;49.20;;;;;;5033982;28;20268;-89
2022/09/22 13:19:00;;;;;;;5.05;1.60;;;19.10;48.20;;;;;;5034115;28;20205;-90
2022/09/22 13:21:28;;;;;;;4.45;1.02;;;19.10;48.60;;;;;;5035818;28;20164;-90
2022/09/22 13:23:58;;;;;;;5.63;1.33;;;19.50;49.30;;;;;;5034085;28;20260;-89
2022/09/22 13:26:26;;;;;;;5.25;1.52;;;19.20;47.70;;;;;;5035231;28;20189;-89
2022/09/22 13:29:10;;;;;;;7.72;1.30;;;18.80;47.80;;;;;;5035070;28;20678;-90
2022/09/22 13:31:44;;;;;;;4.57;1.30;;;19.10;48.40;;;;;;5035138;28;20169;-89